Time;durP1;ratioP1;P1;durP2;ratioP2;P2;SDS_P1;SDS_P2;PMS_P1;PMS_P2;Temp;Humidity;BMP_temperature;BMP_pressure;BME280_temperature;BME280_humidity;BME280_pressure;Samples;Min_cycle;Max_cycle;Signal;HPM_P1;HPM_P2
2023/11/04 00:00:34;;;;;;;2.03;1.77;;;;;;;;;;5033951;28;20379;-81
2023/11/04 00:03:00;;;;;;;2.05;1.80;;;;;;;;;;5035452;28;20399;-81
2023/11/04 00:05:26;;;;;;;1.90;1.70;;;;;;;;;;5034681;28;20429;-81
2023/11/04 00:07:52;;;;;;;1.90;1.60;;;;;;;;;;5034492;28;20388;-81
2023/11/04 00:10:23;;;;;;;1.63;1.52;;;;;;;;;;5036409;28;20418;-81
2023/11/04 00:12:49;;;;;;;2.50;1.65;;;;;;;;;;5037099;28;20397;-81
2023/11/04 00:15:15;;;;;;;1.77;1.48;;;;;;;;;;5036473;28;20394;-81
2023/11/04 00:17:43;;;;;;;2.27;1.27;;;;;;;;;;5037719;28;20572;-81
2023/11/04 00:20:09;;;;;;;1.50;1.40;;;;;;;;;;5037313;28;20426;-81
2023/11/04 00:22:35;;;;;;;1.40;1.30;;;;;;;;;;5036884;28;20390;-81
2023/11/04 00:25:01;;;;;;;1.48;1.38;;;;;;;;;;5028730;28;20383;-81
2023/11/04 00:27:27;;;;;;;1.50;1.33;;;;;;;;;;5036980;28;20398;-81
2023/11/04 00:29:52;;;;;;;1.83;1.40;;;;;;;;;;5037148;28;20537;-81
2023/11/04 00:32:19;;;;;;;1.45;1.30;;;;;;;;;;5037473;28;20417;-81
2023/11/04 00:34:45;;;;;;;2.00;1.67;;;;;;;;;;5037553;28;20386;-81
2023/11/04 00:37:11;;;;;;;1.80;1.70;;;;;;;;;;5037649;28;20376;-81
2023/11/04 00:39:37;;;;;;;1.70;1.60;;;;;;;;;;5037431;28;20410;-81
2023/11/04 00:42:04;;;;;;;1.67;1.47;;;;;;;;;;5038175;28;20442;-81
2023/11/04 00:44:30;;;;;;;1.52;1.20;;;;;;;;;;5038274;28;20437;-81
2023/11/04 00:46:56;;;;;;;1.50;1.40;;;;;;;;;;5038216;28;20452;-81
2023/11/04 00:49:22;;;;;;;1.48;1.20;;;;;;;;;;5038138;28;20805;-81
2023/11/04 00:51:48;;;;;;;1.30;1.20;;;;;;;;;;5020172;28;20426;-81
2023/11/04 00:54:14;;;;;;;1.30;1.20;;;;;;;;;;5038671;28;20421;-81
2023/11/04 00:56:40;;;;;;;2.25;1.30;;;;;;;;;;5038072;28;20395;-81
2023/11/04 00:59:06;;;;;;;1.47;1.20;;;;;;;;;;5037184;28;20942;-81
2023/11/04 01:01:32;;;;;;;1.65;1.50;;;;;;;;;;5018666;28;20387;-81
2023/11/04 01:03:58;;;;;;;2.22;1.50;;;;;;;;;;5024444;28;20862;-81
2023/11/04 01:06:24;;;;;;;1.50;1.40;;;;;;;;;;5035219;28;20853;-81
2023/11/04 01:08:50;;;;;;;1.70;1.50;;;;;;;;;;5038302;28;20430;-81
2023/11/04 01:11:19;;;;;;;2.17;1.70;;;;;;;;;;5038527;28;20418;-81
2023/11/04 01:13:46;;;;;;;2.53;1.70;;;;;;;;;;5038961;28;20394;-81
2023/11/04 01:16:12;;;;;;;1.70;1.60;;;;;;;;;;5038377;28;20390;-80
2023/11/04 01:18:39;;;;;;;1.73;1.50;;;;;;;;;;5038546;28;20391;-81
2023/11/04 01:21:05;;;;;;;2.08;1.80;;;;;;;;;;5037914;28;20383;-81
2023/11/04 01:23:31;;;;;;;2.67;1.90;;;;;;;;;;5031214;28;20692;-81
2023/11/04 01:25:57;;;;;;;2.38;2.17;;;;;;;;;;5037919;28;20413;-81
2023/11/04 01:28:23;;;;;;;2.30;1.87;;;;;;;;;;5033606;28;20396;-81
2023/11/04 01:30:49;;;;;;;2.70;1.60;;;;;;;;;;5035119;28;20410;-81
2023/11/04 01:33:15;;;;;;;1.67;1.50;;;;;;;;;;5039048;28;20375;-81
2023/11/04 01:35:41;;;;;;;2.03;1.50;;;;;;;;;;5038837;28;20434;-81
2023/11/04 01:38:07;;;;;;;1.50;1.30;;;;;;;;;;5038885;28;20413;-81
2023/11/04 01:40:33;;;;;;;1.80;1.55;;;;;;;;;;5039281;28;20397;-81
2023/11/04 01:42:59;;;;;;;1.30;1.20;;;;;;;;;;5038815;28;20447;-81
2023/11/04 01:45:25;;;;;;;1.23;1.13;;;;;;;;;;5039470;28;20426;-81
2023/11/04 01:47:51;;;;;;;1.60;1.17;;;;;;;;;;5039102;28;20388;-81
2023/11/04 01:50:17;;;;;;;1.20;1.10;;;;;;;;;;5039238;28;20415;-81
2023/11/04 01:52:44;;;;;;;1.13;0.95;;;;;;;;;;5028648;28;20416;-81
2023/11/04 01:55:10;;;;;;;0.88;0.80;;;;;;;;;;5037405;28;20870;-81
2023/11/04 01:57:37;;;;;;;1.00;0.70;;;;;;;;;;5039883;28;20386;-81
2023/11/04 02:00:04;;;;;;;0.85;0.77;;;;;;;;;;5039505;28;20429;-80
2023/11/04 02:02:31;;;;;;;0.70;0.70;;;;;;;;;;5039584;28;20406;-81
2023/11/04 02:04:58;;;;;;;0.73;0.73;;;;;;;;;;5039523;28;20379;-81
2023/11/04 02:07:25;;;;;;;1.30;0.75;;;;;;;;;;5036955;28;20765;-80
2023/11/04 02:09:51;;;;;;;1.10;0.80;;;;;;;;;;5039143;28;20414;-81
2023/11/04 02:12:18;;;;;;;0.75;0.65;;;;;;;;;;5040568;28;20383;-81
2023/11/04 02:14:51;;;;;;;1.60;0.60;;;;;;;;;;5043235;28;20397;-81
2023/11/04 02:17:17;;;;;;;0.80;0.70;;;;;;;;;;5042889;28;20890;-81
2023/11/04 02:19:43;;;;;;;0.88;0.60;;;;;;;;;;5043350;28;20478;-81
2023/11/04 02:22:09;;;;;;;0.90;0.68;;;;;;;;;;5042765;28;20395;-81
2023/11/04 02:24:35;;;;;;;1.17;0.70;;;;;;;;;;5025570;28;20414;-81
2023/11/04 02:27:01;;;;;;;0.65;0.60;;;;;;;;;;5042564;28;20409;-81
2023/11/04 02:29:27;;;;;;;1.13;0.70;;;;;;;;;;5043604;28;20837;-81
2023/11/04 02:31:53;;;;;;;0.77;0.70;;;;;;;;;;5042773;28;20395;-81
2023/11/04 02:34:19;;;;;;;0.75;0.75;;;;;;;;;;5042423;28;20383;-81
2023/11/04 02:36:45;;;;;;;0.70;0.65;;;;;;;;;;5042457;28;20945;-81
2023/11/04 02:39:11;;;;;;;0.90;0.60;;;;;;;;;;5043234;28;20387;-81
2023/11/04 02:41:37;;;;;;;0.80;0.60;;;;;;;;;;5043160;28;20375;-81
2023/11/04 02:44:04;;;;;;;1.03;0.80;;;;;;;;;;5042323;28;20413;-81
2023/11/04 02:46:30;;;;;;;0.60;0.60;;;;;;;;;;5042869;28;20466;-81
2023/11/04 02:48:56;;;;;;;1.05;0.95;;;;;;;;;;5043124;28;20868;-81
2023/11/04 02:51:22;;;;;;;1.03;1.00;;;;;;;;;;5043437;28;20410;-81
2023/11/04 02:53:48;;;;;;;1.10;0.80;;;;;;;;;;5034474;28;20393;-81
2023/11/04 02:56:15;;;;;;;3.08;1.65;;;;;;;;;;5035452;28;20386;-81
2023/11/04 02:58:41;;;;;;;1.25;0.82;;;;;;;;;;5037381;28;20408;-80
2023/11/04 03:01:10;;;;;;;1.52;1.20;;;;;;;;;;5040415;28;20460;-81
2023/11/04 03:03:36;;;;;;;0.90;0.77;;;;;;;;;;5031330;28;20413;-81
2023/11/04 03:06:02;;;;;;;1.30;0.90;;;;;;;;;;5033517;28;21082;-81
2023/11/04 03:08:29;;;;;;;1.05;0.70;;;;;;;;;;5031659;28;20881;-81
2023/11/04 03:10:55;;;;;;;1.30;0.80;;;;;;;;;;5036510;28;20398;-81
2023/11/04 03:13:21;;;;;;;0.75;0.63;;;;;;;;;;5037008;28;20841;-81
2023/11/04 03:15:47;;;;;;;1.27;0.50;;;;;;;;;;5031623;28;20379;-81
2023/11/04 03:18:14;;;;;;;1.00;0.60;;;;;;;;;;5019632;28;20397;-81
2023/11/04 03:20:40;;;;;;;1.50;0.70;;;;;;;;;;5034499;28;20921;-81
2023/11/04 03:23:06;;;;;;;0.80;0.55;;;;;;;;;;5036863;28;20425;-81
2023/11/04 03:25:32;;;;;;;0.50;0.50;;;;;;;;;;5036323;28;20744;-81
2023/11/04 03:27:58;;;;;;;1.10;0.70;;;;;;;;;;5020330;28;20393;-81
2023/11/04 03:30:24;;;;;;;1.15;0.60;;;;;;;;;;5019290;28;20413;-81
2023/11/04 03:32:50;;;;;;;0.70;0.50;;;;;;;;;;5019343;28;20381;-81
2023/11/04 03:35:16;;;;;;;0.67;0.50;;;;;;;;;;5019473;28;20445;-81
2023/11/04 03:37:42;;;;;;;0.75;0.32;;;;;;;;;;5034279;28;20490;-81
2023/11/04 03:40:09;;;;;;;0.40;0.40;;;;;;;;;;5037908;28;20383;-81
2023/11/04 03:42:36;;;;;;;0.60;0.50;;;;;;;;;;5037809;28;20743;-81
2023/11/04 03:45:03;;;;;;;0.90;0.60;;;;;;;;;;5038550;28;20390;-81
2023/11/04 03:47:29;;;;;;;0.50;0.50;;;;;;;;;;5038612;28;20456;-81
2023/11/04 03:49:55;;;;;;;0.80;0.60;;;;;;;;;;5038734;28;20454;-81
2023/11/04 03:52:24;;;;;;;0.50;0.40;;;;;;;;;;5038482;28;20830;-80
2023/11/04 03:54:50;;;;;;;0.43;0.40;;;;;;;;;;5038233;28;20829;-81
2023/11/04 03:57:16;;;;;;;0.68;0.50;;;;;;;;;;5037777;28;20387;-81
2023/11/04 03:59:42;;;;;;;0.60;0.40;;;;;;;;;;5038346;28;20412;-81
2023/11/04 04:02:08;;;;;;;0.52;0.32;;;;;;;;;;5038308;28;20415;-81
2023/11/04 04:04:34;;;;;;;1.60;0.40;;;;;;;;;;5039440;28;20444;-81
2023/11/04 04:07:00;;;;;;;0.55;0.40;;;;;;;;;;5038468;28;20394;-81
2023/11/04 04:09:26;;;;;;;0.60;0.40;;;;;;;;;;5038571;28;20427;-81
2023/11/04 04:11:52;;;;;;;0.65;0.40;;;;;;;;;;5039414;28;20454;-80
2023/11/04 04:14:18;;;;;;;1.00;0.50;;;;;;;;;;5039490;28;20486;-81
2023/11/04 04:16:45;;;;;;;0.70;0.50;;;;;;;;;;5039701;28;20394;-81
2023/11/04 04:19:11;;;;;;;0.50;0.40;;;;;;;;;;5037826;28;20410;-81
2023/11/04 04:21:38;;;;;;;0.50;0.40;;;;;;;;;;5039612;28;20402;-81
2023/11/04 04:24:04;;;;;;;0.50;0.50;;;;;;;;;;5030268;28;20379;-81
2023/11/04 04:26:30;;;;;;;0.80;0.60;;;;;;;;;;5039662;28;20387;-81
2023/11/04 04:28:57;;;;;;;0.80;0.60;;;;;;;;;;5039263;28;20418;-81
2023/11/04 04:31:23;;;;;;;0.93;0.60;;;;;;;;;;5040034;28;20392;-81
2023/11/04 04:33:50;;;;;;;1.55;0.82;;;;;;;;;;5038348;28;20391;-81
2023/11/04 04:36:16;;;;;;;0.80;0.70;;;;;;;;;;5038183;28;20853;-81
2023/11/04 04:38:42;;;;;;;0.80;0.60;;;;;;;;;;5039568;28;20466;-81
2023/11/04 04:41:08;;;;;;;0.90;0.50;;;;;;;;;;5040778;28;20391;-81
2023/11/04 04:43:36;;;;;;;1.00;0.50;;;;;;;;;;5025291;28;20383;-81
2023/11/04 04:46:02;;;;;;;0.82;0.47;;;;;;;;;;5039625;28;20450;-81
2023/11/04 04:48:32;;;;;;;0.60;0.60;;;;;;;;;;5021994;28;20833;-81
2023/11/04 04:50:58;;;;;;;2.15;0.60;;;;;;;;;;5036372;28;20402;-81
2023/11/04 04:53:24;;;;;;;1.10;0.60;;;;;;;;;;5039664;28;20387;-81
2023/11/04 04:55:53;;;;;;;0.40;0.40;;;;;;;;;;5039868;28;20395;-81
2023/11/04 04:58:19;;;;;;;0.60;0.47;;;;;;;;;;5039512;28;20383;-81
2023/11/04 05:00:45;;;;;;;0.60;0.50;;;;;;;;;;5038763;28;20415;-81
2023/11/04 05:03:11;;;;;;;0.60;0.50;;;;;;;;;;5040094;28;20785;-81
2023/11/04 05:05:37;;;;;;;0.50;0.50;;;;;;;;;;5040339;28;20379;-81
2023/11/04 05:08:03;;;;;;;0.50;0.50;;;;;;;;;;5036574;28;20474;-81
2023/11/04 05:10:29;;;;;;;0.50;0.40;;;;;;;;;;5038723;28;20418;-80
2023/11/04 05:12:55;;;;;;;0.77;0.40;;;;;;;;;;5040401;28;20409;-81
2023/11/04 05:15:21;;;;;;;0.75;0.40;;;;;;;;;;5039995;28;20427;-81
2023/11/04 05:17:48;;;;;;;1.00;0.40;;;;;;;;;;5039596;28;20380;-81
2023/11/04 05:20:15;;;;;;;0.90;0.50;;;;;;;;;;5037100;28;20379;-81
2023/11/04 05:22:40;;;;;;;0.70;0.60;;;;;;;;;;5037859;28;20379;-81
2023/11/04 05:25:07;;;;;;;1.20;0.47;;;;;;;;;;5036982;28;21001;-81
2023/11/04 05:27:33;;;;;;;1.48;0.60;;;;;;;;;;5039450;28;20398;-80
2023/11/04 05:30:00;;;;;;;1.30;0.60;;;;;;;;;;5039396;28;20502;-82
2023/11/04 05:32:26;;;;;;;0.85;0.40;;;;;;;;;;5038940;28;20387;-81
2023/11/04 05:34:52;;;;;;;0.50;0.50;;;;;;;;;;5040000;28;20526;-81
2023/11/04 05:37:18;;;;;;;0.75;0.40;;;;;;;;;;5040446;28;20391;-81
2023/11/04 05:39:44;;;;;;;0.60;0.35;;;;;;;;;;5039443;28;20387;-81
2023/11/04 05:42:10;;;;;;;1.20;0.50;;;;;;;;;;5038648;28;20445;-81
2023/11/04 05:44:36;;;;;;;0.32;0.32;;;;;;;;;;5040614;28;20837;-81
2023/11/04 05:47:02;;;;;;;1.13;0.68;;;;;;;;;;5038355;28;20449;-81
2023/11/04 05:49:28;;;;;;;0.50;0.50;;;;;;;;;;5037207;28;20501;-81
2023/11/04 05:51:54;;;;;;;0.57;0.55;;;;;;;;;;5038664;28;20423;-80
2023/11/04 05:54:20;;;;;;;0.53;0.40;;;;;;;;;;5037798;28;20383;-81
2023/11/04 05:56:46;;;;;;;0.80;0.73;;;;;;;;;;5039789;28;20409;-81
2023/11/04 05:59:12;;;;;;;0.80;0.80;;;;;;;;;;5039341;28;20383;-81
2023/11/04 06:01:38;;;;;;;0.98;0.50;;;;;;;;;;5038647;28;20464;-80
2023/11/04 06:04:04;;;;;;;0.70;0.65;;;;;;;;;;5040551;28;20833;-81
2023/11/04 06:06:30;;;;;;;0.88;0.60;;;;;;;;;;5038687;28;20399;-81
2023/11/04 06:08:56;;;;;;;0.68;0.57;;;;;;;;;;5039105;28;20502;-81
2023/11/04 06:11:22;;;;;;;1.67;0.73;;;;;;;;;;5038970;28;20457;-81
2023/11/04 06:13:48;;;;;;;2.15;0.73;;;;;;;;;;5038786;28;20379;-81
2023/11/04 06:16:14;;;;;;;0.60;0.60;;;;;;;;;;5035728;28;20391;-80
2023/11/04 06:18:40;;;;;;;5.90;5.32;;;;;;;;;;5033673;28;20486;-80
2023/11/04 06:21:06;;;;;;;2.35;0.90;;;;;;;;;;5032677;28;20383;-80
2023/11/04 06:23:33;;;;;;;2.33;1.23;;;;;;;;;;5034893;28;20381;-82
2023/11/04 06:25:59;;;;;;;1.23;0.90;;;;;;;;;;5033274;28;20450;-83
2023/11/04 06:28:25;;;;;;;1.52;0.90;;;;;;;;;;5027857;28;20380;-82
2023/11/04 06:30:51;;;;;;;1.45;0.88;;;;;;;;;;5020395;28;20395;-82
2023/11/04 06:33:17;;;;;;;1.73;0.97;;;;;;;;;;5017922;28;20750;-82
2023/11/04 06:35:43;;;;;;;1.40;0.95;;;;;;;;;;5028796;28;20402;-79
2023/11/04 06:38:09;;;;;;;1.30;0.98;;;;;;;;;;5032417;28;20387;-81
2023/11/04 06:40:38;;;;;;;2.05;0.90;;;;;;;;;;5030398;28;20387;-81
2023/11/04 06:43:04;;;;;;;1.55;0.90;;;;;;;;;;5033275;28;20482;-81
2023/11/04 06:45:30;;;;;;;1.33;0.73;;;;;;;;;;5033438;28;20387;-81
2023/11/04 06:47:59;;;;;;;1.30;1.00;;;;;;;;;;5034187;28;20410;-80
2023/11/04 06:50:25;;;;;;;2.28;0.80;;;;;;;;;;5034149;28;20506;-81
2023/11/04 06:52:51;;;;;;;0.75;0.70;;;;;;;;;;5034372;28;20794;-81
2023/11/04 06:55:17;;;;;;;1.33;0.70;;;;;;;;;;5030666;28;20421;-80
2023/11/04 06:57:43;;;;;;;2.30;0.80;;;;;;;;;;5025005;28;20376;-80
2023/11/04 07:00:10;;;;;;;1.05;0.75;;;;;;;;;;5031496;28;20399;-80
2023/11/04 07:02:36;;;;;;;0.60;0.60;;;;;;;;;;5037456;28;20694;-80
2023/11/04 07:05:02;;;;;;;0.90;0.65;;;;;;;;;;5037114;28;20722;-80
2023/11/04 07:07:29;;;;;;;1.23;0.70;;;;;;;;;;5036798;28;20391;-80
2023/11/04 07:09:56;;;;;;;1.50;0.70;;;;;;;;;;5037063;28;20407;-80
2023/11/04 07:12:22;;;;;;;1.23;0.70;;;;;;;;;;5037378;28;20418;-80
2023/11/04 07:14:49;;;;;;;1.30;0.90;;;;;;;;;;5038122;28;20452;-80
2023/11/04 07:17:15;;;;;;;0.83;0.70;;;;;;;;;;5037312;28;20386;-80
2023/11/04 07:19:41;;;;;;;3.30;1.30;;;;;;;;;;5037230;28;20382;-81
2023/11/04 07:22:09;;;;;;;1.17;0.70;;;;;;;;;;5037437;28;20403;-81
2023/11/04 07:24:35;;;;;;;0.80;0.70;;;;;;;;;;5036950;28;20486;-80
2023/11/04 07:27:01;;;;;;;2.40;0.70;;;;;;;;;;5034558;28;20764;-80
2023/11/04 07:29:30;;;;;;;1.45;0.93;;;;;;;;;;5031477;28;20819;-80
2023/11/04 07:31:56;;;;;;;1.00;0.70;;;;;;;;;;5030656;28;20821;-81
2023/11/04 07:34:22;;;;;;;1.30;0.55;;;;;;;;;;5026718;28;20421;-81
2023/11/04 07:36:48;;;;;;;0.70;0.60;;;;;;;;;;5030377;28;20761;-81
2023/11/04 07:39:14;;;;;;;2.40;1.27;;;;;;;;;;5036529;28;20387;-81
2023/11/04 07:41:40;;;;;;;1.30;1.08;;;;;;;;;;5036099;28;20418;-82
2023/11/04 07:44:07;;;;;;;1.35;1.20;;;;;;;;;;5036498;28;20382;-82
2023/11/04 07:46:33;;;;;;;1.60;0.70;;;;;;;;;;5035315;28;20482;-82
2023/11/04 07:48:59;;;;;;;0.50;0.40;;;;;;;;;;5032725;28;20421;-81
2023/11/04 07:51:25;;;;;;;0.90;0.50;;;;;;;;;;5032762;28;20422;-81
2023/11/04 07:53:51;;;;;;;1.23;0.82;;;;;;;;;;5037359;28;20463;-81
2023/11/04 07:56:17;;;;;;;0.70;0.70;;;;;;;;;;5036981;28;20402;-81
2023/11/04 07:58:43;;;;;;;0.90;0.80;;;;;;;;;;5032340;28;20391;-81
2023/11/04 08:01:09;;;;;;;1.35;0.60;;;;;;;;;;5030212;28;20397;-81
2023/11/04 08:03:35;;;;;;;0.43;0.40;;;;;;;;;;5032419;28;20814;-81
2023/11/04 08:06:01;;;;;;;0.60;0.32;;;;;;;;;;5033538;28;20421;-81
2023/11/04 08:08:27;;;;;;;1.20;1.00;;;;;;;;;;5036320;28;20394;-81
2023/11/04 08:10:53;;;;;;;1.60;0.70;;;;;;;;;;5037292;28;20402;-82
2023/11/04 08:13:22;;;;;;;0.43;0.40;;;;;;;;;;5028146;28;20775;-80
2023/11/04 08:15:53;;;;;;;1.20;0.70;;;;;;;;;;5015102;28;20474;-80
2023/11/04 08:18:19;;;;;;;0.60;0.60;;;;;;;;;;5032725;28;20411;-81
2023/11/04 08:20:47;;;;;;;0.50;0.40;;;;;;;;;;5029862;28;20422;-81
2023/11/04 08:23:13;;;;;;;0.63;0.32;;;;;;;;;;5030597;28;20483;-81
2023/11/04 08:25:39;;;;;;;0.40;0.40;;;;;;;;;;5010805;28;20400;-81
2023/11/04 08:28:05;;;;;;;0.40;0.30;;;;;;;;;;5032494;28;20440;-81
2023/11/04 08:30:31;;;;;;;0.90;0.40;;;;;;;;;;5031216;28;20475;-81
2023/11/04 08:32:57;;;;;;;0.30;0.30;;;;;;;;;;5030696;28;20382;-81
2023/11/04 08:35:23;;;;;;;0.80;0.30;;;;;;;;;;5032487;28;20481;-81
2023/11/04 08:37:49;;;;;;;0.32;0.32;;;;;;;;;;5015948;28;20419;-82
2023/11/04 08:40:15;;;;;;;0.60;0.52;;;;;;;;;;5037230;28;20402;-81
2023/11/04 08:42:41;;;;;;;0.35;0.30;;;;;;;;;;5041412;28;20422;-82
2023/11/04 08:45:12;;;;;;;0.80;0.30;;;;;;;;;;5024432;28;20399;-82
2023/11/04 08:47:38;;;;;;;1.67;0.30;;;;;;;;;;5033319;28;20401;-81
2023/11/04 08:50:06;;;;;;;0.82;0.50;;;;;;;;;;5034347;28;20423;-81
2023/11/04 08:52:32;;;;;;;0.90;0.30;;;;;;;;;;5035698;28;20833;-81
2023/11/04 08:55:01;;;;;;;0.40;0.30;;;;;;;;;;5036026;28;20462;-81
2023/11/04 08:57:27;;;;;;;0.35;0.35;;;;;;;;;;5031307;28;20429;-81
2023/11/04 08:59:54;;;;;;;0.55;0.40;;;;;;;;;;5032165;28;20380;-81
2023/11/04 09:02:20;;;;;;;1.20;0.40;;;;;;;;;;5034798;28;20394;-81
2023/11/04 09:04:46;;;;;;;0.30;0.30;;;;;;;;;;5029257;28;20798;-81
2023/11/04 09:07:13;;;;;;;0.70;0.30;;;;;;;;;;5028837;28;20879;-81
2023/11/04 09:09:39;;;;;;;0.60;0.40;;;;;;;;;;5029646;28;20491;-81
2023/11/04 09:12:05;;;;;;;0.40;0.30;;;;;;;;;;5029364;28;20391;-81
2023/11/04 09:14:31;;;;;;;0.52;0.35;;;;;;;;;;5030053;28;20383;-81
2023/11/04 09:16:57;;;;;;;0.88;0.50;;;;;;;;;;5026752;28;20438;-81
2023/11/04 09:19:24;;;;;;;0.80;0.60;;;;;;;;;;5030342;28;20379;-80
2023/11/04 09:21:51;;;;;;;0.57;0.50;;;;;;;;;;5028769;28;20409;-81
2023/11/04 09:24:17;;;;;;;0.57;0.47;;;;;;;;;;5035046;28;20379;-81
2023/11/04 09:26:44;;;;;;;2.00;0.50;;;;;;;;;;5035224;28;20624;-81
2023/11/04 09:29:10;;;;;;;0.77;0.60;;;;;;;;;;5030091;28;20505;-81
2023/11/04 09:31:36;;;;;;;1.57;0.60;;;;;;;;;;5035499;28;20740;-81
2023/11/04 09:34:03;;;;;;;0.70;0.50;;;;;;;;;;5032751;28;20387;-80
2023/11/04 09:36:29;;;;;;;1.73;0.50;;;;;;;;;;5033635;28;20733;-81
2023/11/04 09:38:55;;;;;;;0.95;0.40;;;;;;;;;;5034450;28;20387;-81
2023/11/04 09:41:22;;;;;;;1.38;0.50;;;;;;;;;;5034580;28;20383;-81
2023/11/04 09:43:48;;;;;;;1.00;0.40;;;;;;;;;;5034799;28;20383;-81
2023/11/04 09:46:14;;;;;;;0.80;0.43;;;;;;;;;;5034037;28;20814;-81
2023/11/04 09:48:40;;;;;;;0.90;0.40;;;;;;;;;;5033550;28;20458;-81
2023/11/04 09:51:11;;;;;;;0.50;0.43;;;;;;;;;;5035676;28;20387;-81
2023/11/04 09:53:38;;;;;;;1.52;0.65;;;;;;;;;;5033659;28;20909;-81
2023/11/04 09:56:06;;;;;;;1.80;0.90;;;;;;;;;;5031037;28;20474;-81
2023/11/04 09:58:32;;;;;;;2.30;0.88;;;;;;;;;;5028217;28;20397;-80
2023/11/04 10:01:01;;;;;;;1.30;0.90;;;;;;;;;;5032095;28;20410;-80
2023/11/04 10:03:27;;;;;;;2.55;1.00;;;;;;;;;;5032331;28;20437;-80
2023/11/04 10:05:54;;;;;;;2.60;1.08;;;;;;;;;;5033309;28;20429;-81
2023/11/04 10:08:20;;;;;;;1.00;0.80;;;;;;;;;;5014753;28;20395;-81
2023/11/04 10:10:46;;;;;;;1.20;0.80;;;;;;;;;;5033513;28;20415;-80
2023/11/04 10:13:12;;;;;;;1.30;0.70;;;;;;;;;;5030923;28;20414;-80
2023/11/04 10:15:38;;;;;;;0.90;0.60;;;;;;;;;;5033299;28;20395;-81
2023/11/04 10:18:04;;;;;;;0.70;0.70;;;;;;;;;;5015077;28;20403;-83
2023/11/04 10:20:30;;;;;;;0.90;0.70;;;;;;;;;;5033052;28;20403;-81
2023/11/04 10:22:56;;;;;;;1.60;0.82;;;;;;;;;;5032194;28;20399;-80
2023/11/04 10:25:22;;;;;;;0.80;0.73;;;;;;;;;;5033587;28;20415;-81
2023/11/04 10:27:48;;;;;;;1.10;0.70;;;;;;;;;;5032872;28;20403;-80
2023/11/04 10:30:15;;;;;;;1.08;0.65;;;;;;;;;;5034095;28;20983;-80
2023/11/04 10:32:44;;;;;;;1.50;0.80;;;;;;;;;;5033140;28;20431;-80
2023/11/04 10:35:11;;;;;;;1.17;0.50;;;;;;;;;;5031395;28;20382;-80
2023/11/04 10:37:38;;;;;;;0.90;0.73;;;;;;;;;;5031257;28;20394;-80
2023/11/04 10:40:08;;;;;;;1.40;0.93;;;;;;;;;;5031596;28;20470;-80
2023/11/04 10:42:36;;;;;;;0.80;0.80;;;;;;;;;;5036101;28;20493;-80
2023/11/04 10:45:06;;;;;;;1.87;0.70;;;;;;;;;;5034318;28;20405;-80
2023/11/04 10:47:38;;;;;;;1.10;0.57;;;;;;;;;;5035862;28;20861;-80
2023/11/04 10:50:14;;;;;;;0.75;0.70;;;;;;;;;;5036504;28;20585;-81
2023/11/04 10:52:59;;;;;;;0.75;0.60;;;;;;;;;;5036298;28;20436;-80
2023/11/04 10:55:28;;;;;;;1.33;0.75;;;;;;;;;;5036494;28;20484;-81
2023/11/04 10:58:07;;;;;;;1.30;1.00;;;;;;;;;;5021956;28;20399;-81
2023/11/04 11:00:35;;;;;;;1.20;0.80;;;;;;;;;;5034574;28;20394;-80
2023/11/04 11:03:02;;;;;;;0.98;0.85;;;;;;;;;;5033627;28;20409;-81
2023/11/04 11:05:29;;;;;;;1.45;1.00;;;;;;;;;;5031319;28;20430;-81
2023/11/04 11:07:57;;;;;;;1.07;0.97;;;;;;;;;;5031828;28;20401;-81
2023/11/04 11:10:25;;;;;;;3.30;0.90;;;;;;;;;;5035897;28;20509;-80
2023/11/04 11:13:13;;;;;;;1.90;1.00;;;;;;;;;;5036094;28;20399;-80
2023/11/04 11:15:40;;;;;;;1.33;1.23;;;;;;;;;;5034572;28;20394;-80
2023/11/04 11:18:07;;;;;;;1.85;1.33;;;;;;;;;;5033210;28;20474;-81
2023/11/04 11:20:35;;;;;;;1.80;0.80;;;;;;;;;;5034962;28;20844;-81
2023/11/04 11:23:04;;;;;;;0.80;0.70;;;;;;;;;;5033276;28;20391;-81
2023/11/04 11:25:31;;;;;;;1.25;0.90;;;;;;;;;;5023455;28;20399;-81
2023/11/04 11:27:59;;;;;;;1.30;0.83;;;;;;;;;;5033941;28;20394;-81
2023/11/04 11:30:54;;;;;;;3.50;1.00;;;;;;;;;;5036054;28;20430;-81
2023/11/04 11:33:26;;;;;;;1.58;0.80;;;;;;;;;;5014406;28;20387;-81
2023/11/04 11:35:54;;;;;;;0.75;0.50;;;;;;;;;;5035587;28;20454;-81
2023/11/04 11:38:20;;;;;;;0.95;0.82;;;;;;;;;;5034203;28;20474;-81
2023/11/04 11:40:47;;;;;;;1.20;0.90;;;;;;;;;;5033684;28;20486;-81
2023/11/04 11:43:13;;;;;;;1.10;0.80;;;;;;;;;;5035485;28;20414;-80
2023/11/04 11:45:42;;;;;;;0.80;0.60;;;;;;;;;;5033966;28;20756;-80
2023/11/04 11:48:08;;;;;;;1.48;1.17;;;;;;;;;;5012275;28;20403;-81
2023/11/04 11:50:39;;;;;;;0.95;0.70;;;;;;;;;;5032382;28;20749;-81
2023/11/04 11:53:05;;;;;;;0.60;0.60;;;;;;;;;;5035826;28;20811;-81
2023/11/04 11:55:31;;;;;;;2.17;1.10;;;;;;;;;;5034805;28;20856;-81
2023/11/04 11:57:57;;;;;;;1.02;0.57;;;;;;;;;;5031861;28;20485;-81
2023/11/04 12:00:23;;;;;;;0.77;0.50;;;;;;;;;;5035726;28;20438;-81
2023/11/04 12:02:51;;;;;;;1.00;0.60;;;;;;;;;;5036037;28;20725;-81
2023/11/04 12:05:17;;;;;;;1.70;1.00;;;;;;;;;;5035922;28;20391;-81
2023/11/04 12:07:45;;;;;;;1.70;0.50;;;;;;;;;;5034884;28;20461;-81
2023/11/04 12:10:12;;;;;;;0.43;0.43;;;;;;;;;;5035991;28;20900;-81
2023/11/04 12:12:38;;;;;;;1.60;0.50;;;;;;;;;;5035876;28;20387;-81
2023/11/04 12:15:10;;;;;;;0.95;0.55;;;;;;;;;;5018032;28;20395;-80
2023/11/04 12:17:36;;;;;;;2.10;1.73;;;;;;;;;;5020916;28;20493;-81
2023/11/04 12:20:04;;;;;;;1.13;0.70;;;;;;;;;;5035105;28;20785;-82
2023/11/04 12:22:30;;;;;;;0.57;0.50;;;;;;;;;;5034945;28;20477;-81
2023/11/04 12:24:56;;;;;;;0.88;0.43;;;;;;;;;;5035615;28;20399;-82
2023/11/04 12:27:22;;;;;;;1.00;0.60;;;;;;;;;;5016918;28;20401;-81
2023/11/04 12:29:58;;;;;;;0.80;0.40;;;;;;;;;;5034650;28;20522;-82
2023/11/04 12:32:25;;;;;;;0.75;0.52;;;;;;;;;;5033683;28;20398;-81
2023/11/04 12:34:56;;;;;;;1.42;0.65;;;;;;;;;;5034769;28;20399;-81
2023/11/04 12:37:26;;;;;;;0.70;0.55;;;;;;;;;;5013515;28;20399;-81
2023/11/04 12:39:53;;;;;;;0.80;0.60;;;;;;;;;;5032784;28;20436;-81
2023/11/04 12:42:19;;;;;;;0.70;0.50;;;;;;;;;;5033588;28;20387;-81
2023/11/04 12:44:45;;;;;;;1.00;0.90;;;;;;;;;;5033948;28;20444;-81
2023/11/04 12:47:12;;;;;;;0.70;0.40;;;;;;;;;;5033572;28;20411;-80
2023/11/04 12:49:38;;;;;;;1.45;0.60;;;;;;;;;;5035374;28;20469;-82
2023/11/04 12:52:06;;;;;;;0.98;0.60;;;;;;;;;;5035162;28;20426;-80
2023/11/04 12:54:32;;;;;;;0.80;0.45;;;;;;;;;;5035573;28;20401;-81
2023/11/04 12:57:01;;;;;;;0.85;0.50;;;;;;;;;;5033315;28;20760;-83
2023/11/04 12:59:27;;;;;;;0.95;0.60;;;;;;;;;;5040130;28;20729;-83
2023/11/04 13:01:53;;;;;;;1.15;0.70;;;;;;;;;;5037201;28;20410;-81
2023/11/04 13:04:19;;;;;;;1.75;0.70;;;;;;;;;;5035085;28;20462;-81
2023/11/04 13:06:45;;;;;;;0.82;0.50;;;;;;;;;;5031803;28;20818;-81
2023/11/04 13:09:11;;;;;;;1.63;0.55;;;;;;;;;;5034375;28;20880;-81
2023/11/04 13:11:37;;;;;;;1.48;0.90;;;;;;;;;;5032943;28;20445;-83
2023/11/04 13:14:03;;;;;;;1.73;1.08;;;;;;;;;;5030975;28;20470;-80
2023/11/04 13:16:32;;;;;;;1.80;1.20;;;;;;;;;;5032292;28;20422;-81
2023/11/04 13:18:58;;;;;;;2.47;1.70;;;;;;;;;;5033841;28;20395;-81
2023/11/04 13:21:25;;;;;;;3.22;2.70;;;;;;;;;;5032486;28;20477;-80
2023/11/04 13:23:51;;;;;;;4.65;3.53;;;;;;;;;;5032764;28;20407;-81
2023/11/04 13:26:17;;;;;;;5.05;3.67;;;;;;;;;;5033019;28;20406;-80
2023/11/04 13:28:44;;;;;;;4.82;3.65;;;;;;;;;;5023158;28;20395;-81
2023/11/04 13:31:10;;;;;;;4.60;3.95;;;;;;;;;;5033300;28;20925;-81
2023/11/04 13:33:37;;;;;;;6.03;5.05;;;;;;;;;;5032265;28;20402;-80
2023/11/04 13:36:03;;;;;;;6.20;5.30;;;;;;;;;;5032601;28;20403;-82
2023/11/04 13:38:29;;;;;;;5.63;5.00;;;;;;;;;;5029332;28;20391;-81
2023/11/04 13:40:55;;;;;;;5.47;4.43;;;;;;;;;;5033778;28;20775;-82
2023/11/04 13:43:22;;;;;;;5.15;4.10;;;;;;;;;;5033990;28;20394;-82
2023/11/04 13:45:48;;;;;;;3.15;2.63;;;;;;;;;;5030919;28;20389;-82
2023/11/04 13:48:16;;;;;;;2.45;2.08;;;;;;;;;;5031490;28;20417;-82
2023/11/04 13:50:42;;;;;;;2.45;1.77;;;;;;;;;;5034037;28;20419;-82
2023/11/04 13:53:08;;;;;;;3.80;1.60;;;;;;;;;;5036037;28;20387;-82
2023/11/04 13:55:34;;;;;;;1.93;1.20;;;;;;;;;;5037439;28;20833;-82
2023/11/04 13:58:01;;;;;;;2.08;1.50;;;;;;;;;;5036900;28;20383;-82
2023/11/04 14:00:27;;;;;;;1.50;1.15;;;;;;;;;;5036894;28;20383;-82
2023/11/04 14:02:53;;;;;;;1.30;1.20;;;;;;;;;;5028443;28;20838;-82
2023/11/04 14:05:20;;;;;;;1.38;1.20;;;;;;;;;;5018122;28;20428;-82
2023/11/04 14:07:46;;;;;;;1.60;1.13;;;;;;;;;;5037435;28;20417;-82
2023/11/04 14:10:12;;;;;;;1.30;1.00;;;;;;;;;;5039777;28;20426;-82
2023/11/04 14:12:38;;;;;;;1.73;0.90;;;;;;;;;;5040076;28;20415;-83
2023/11/04 14:15:06;;;;;;;1.75;1.10;;;;;;;;;;5040876;28;20741;-82
2023/11/04 14:17:32;;;;;;;1.23;1.00;;;;;;;;;;5041243;28;20394;-82
2023/11/04 14:19:59;;;;;;;2.13;1.52;;;;;;;;;;5040220;28;20395;-82
2023/11/04 14:22:25;;;;;;;1.80;1.33;;;;;;;;;;5024117;28;20388;-82
2023/11/04 14:24:52;;;;;;;3.00;1.20;;;;;;;;;;5040262;28;20386;-82
2023/11/04 14:27:18;;;;;;;1.02;0.90;;;;;;;;;;5036804;28;20391;-80
2023/11/04 14:29:44;;;;;;;1.80;1.40;;;;;;;;;;5037411;28;20876;-80
2023/11/04 14:32:10;;;;;;;1.77;1.17;;;;;;;;;;5038139;28;20390;-80
2023/11/04 14:34:36;;;;;;;1.52;1.40;;;;;;;;;;5035610;28;20381;-80
2023/11/04 14:37:02;;;;;;;1.90;1.70;;;;;;;;;;5029970;28;20706;-80
2023/11/04 14:39:28;;;;;;;2.20;1.58;;;;;;;;;;5039526;28;20424;-80